createdAt,value
2019-06-10T00:03:05.723Z,101865.92
2019-06-10T00:08:08.316Z,101853.28
2019-06-10T00:13:11.807Z,101845.69
2019-06-10T00:18:34.125Z,101837.33
2019-06-10T00:23:17.440Z,101832.55
2019-06-10T00:28:21.586Z,101826.03
2019-06-10T00:33:22.644Z,101818.61
2019-06-10T00:38:24.432Z,101809.76
2019-06-10T00:43:26.002Z,101799.16
2019-06-10T00:48:29.413Z,101800.04
2019-06-10T00:53:31.712Z,101786.73
2019-06-10T00:58:33.351Z,101783.53
2019-06-10T01:03:35.216Z,101769.68
2019-06-10T01:08:36.767Z,101764.09
2019-06-10T01:13:38.562Z,101763.38
2019-06-10T01:18:41.592Z,101757.45
2019-06-10T01:23:43.450Z,101757.26
2019-06-10T01:28:44.971Z,101759.34
2019-06-10T01:33:46.509Z,101763.21
2019-06-10T01:38:48.001Z,101750.65
2019-06-10T01:43:51.315Z,101749.53
2019-06-10T01:48:53.390Z,101737.25
2019-06-10T01:53:55.207Z,101734.39
2019-06-10T01:58:57.154Z,101731.95
2019-06-10T02:04:00.819Z,101730.22
2019-06-10T02:09:02.465Z,101719.27
2019-06-10T02:14:04.578Z,101715.40
2019-06-10T02:19:06.041Z,101709.59
2019-06-10T02:24:07.701Z,101708.69
2019-06-10T02:29:11.613Z,101699.81
2019-06-10T02:34:17.507Z,101692.68
2019-06-10T02:39:22.370Z,101684.05
2019-06-10T02:49:55.638Z,101651.63
2019-06-10T02:54:43.707Z,101650.94
2019-06-10T02:59:44.079Z,101651.31
2019-06-10T03:04:45.637Z,101651.21
2019-06-10T03:09:47.310Z,101642.77
2019-06-10T03:14:49.120Z,101649.95
2019-06-10T03:19:53.530Z,101645.64
2019-06-10T03:24:54.113Z,101643.45
2019-06-10T03:29:55.957Z,101635.21
2019-06-10T03:34:57.369Z,101633.27
2019-06-10T03:39:58.883Z,101632.78
2019-06-10T03:45:00.396Z,101637.98
2019-06-10T03:50:03.221Z,101629.13
2019-06-10T03:55:04.990Z,101626.62
2019-06-10T04:00:11.317Z,101624.07
2019-06-10T04:05:13.102Z,101618.40
2019-06-10T04:10:14.291Z,101614.98
2019-06-10T04:15:15.777Z,101602.18
2019-06-10T04:20:17.820Z,101601.14
2019-06-10T04:25:19.902Z,101603.23
2019-06-10T04:30:24.328Z,101596.39
2019-06-10T04:35:26.498Z,101598.31
2019-06-10T04:40:29.360Z,101596.89
2019-06-10T04:45:32.369Z,101583.54
2019-06-10T04:50:42.309Z,101576.90
2019-06-10T04:55:37.996Z,101568.58
2019-06-10T05:00:39.554Z,101570.14
2019-06-10T05:05:43.035Z,101582.79
2019-06-10T05:10:45.024Z,101576.06
2019-06-10T05:15:46.846Z,101562.23
2019-06-10T05:20:56.036Z,101563.39
2019-06-10T05:25:56.089Z,101562.77
2019-06-10T05:30:55.865Z,101562.59
2019-06-10T05:35:57.621Z,101563.23
2019-06-10T05:40:59.023Z,101561.84
2019-06-10T05:46:02.915Z,101562.02
2019-06-10T05:51:06.783Z,101570.83
2019-06-10T05:56:07.451Z,101571.16
2019-06-10T06:01:09.038Z,101565.16
2019-06-10T06:06:12.508Z,101557.89
2019-06-10T06:11:14.676Z,101564.16
2019-06-10T06:16:16.295Z,101558.44
2019-06-10T06:21:25.730Z,101542.59
2019-06-10T06:26:23.589Z,101536.58
2019-06-10T06:31:34.646Z,101528.14
2019-06-10T06:36:38.357Z,101512.55
2019-06-10T06:41:42.464Z,101508.93
2019-06-10T06:46:43.495Z,101507.83
2019-06-10T06:51:54.931Z,101515.12
2019-06-10T06:56:49.239Z,101503.59
2019-06-10T07:01:52.463Z,101508.55
2019-06-10T07:06:55.682Z,101509.26
2019-06-10T07:11:57.379Z,101500.38
2019-06-10T07:16:58.812Z,101494.23
2019-06-10T07:22:09.655Z,101492.39
2019-06-10T07:27:03.932Z,101491.89
2019-06-10T07:32:05.684Z,101489.69
2019-06-10T07:37:07.137Z,101475.66
2019-06-10T07:42:14.847Z,101475.66
2019-06-10T07:47:16.786Z,101468.50
2019-06-10T07:52:20.017Z,101462.69
2019-06-10T07:57:22.584Z,101457.35
2019-06-10T08:02:24.385Z,101453.84
2019-06-10T08:07:26.571Z,101448.06
2019-06-10T08:12:27.995Z,101446.25
2019-06-10T08:17:29.558Z,101448.94
2019-06-10T08:22:35.116Z,101429.74
2019-06-10T08:27:34.567Z,101423.39
2019-06-10T08:32:37.957Z,101416.13
2019-06-10T08:37:40.797Z,101419.63
2019-06-10T08:42:44.142Z,101413.79
2019-06-10T08:47:47.710Z,101402.39
2019-06-10T08:53:07.332Z,101394.33
2019-06-10T08:57:55.584Z,101390.15
2019-06-10T09:02:57.823Z,101386.09
2019-06-10T09:07:59.398Z,101372.13
2019-06-10T09:13:02.762Z,101363.89
2019-06-10T09:18:04.844Z,101359.51
2019-06-10T09:23:19.197Z,101362.50
2019-06-10T09:28:13.072Z,101356.60
2019-06-10T09:33:14.951Z,101350.36
2019-06-10T09:38:16.756Z,101337.64
2019-06-10T09:43:19.396Z,101338.89
2019-06-10T09:48:22.934Z,101339.06
2019-06-10T09:53:33.394Z,101336.94
2019-06-10T09:58:29.474Z,101336.19
2019-06-10T10:03:32.948Z,101324.52
2019-06-10T10:08:34.741Z,101317.31
2019-06-10T10:13:36.626Z,101322.13
2019-06-10T10:18:38.366Z,101309.45
2019-06-10T10:23:52.482Z,101301.33
2019-06-10T10:28:45.107Z,101297.70
2019-06-10T10:33:48.439Z,101296.48
2019-06-10T10:38:50.851Z,101289.16
2019-06-10T10:43:58.031Z,101283.64
2019-06-10T10:48:56.637Z,101269.55
2019-06-10T10:54:25.520Z,101264.31
2019-06-10T10:59:02.209Z,101272.04
2019-06-10T11:04:03.997Z,101266.25
2019-06-10T11:09:06.680Z,101249.59
2019-06-10T11:14:08.233Z,101256.74
2019-06-10T11:19:09.938Z,101247.28
2019-06-10T11:24:14.168Z,101241.13
2019-06-10T11:29:14.994Z,101226.05
2019-06-10T11:34:19.664Z,101211.41
2019-06-10T11:39:22.538Z,101197.39
2019-06-10T11:44:24.093Z,101195.33
2019-06-10T11:49:26.382Z,101194.39
2019-06-10T11:54:28.019Z,101191.53
2019-06-10T11:59:32.585Z,101192.66
2019-06-10T12:04:34.039Z,101192.16
2019-06-10T12:09:35.623Z,101194.02
2019-06-10T12:14:37.169Z,101193.89
2019-06-10T12:19:39.081Z,101186.05
2019-06-10T12:24:43.190Z,101179.87
2019-06-10T12:29:44.810Z,101178.69
2019-06-10T12:34:47.080Z,101189.81
2019-06-10T12:39:48.663Z,101174.97
2019-06-10T12:44:50.142Z,101164.44
2019-06-10T12:49:53.629Z,101158.30
2019-06-10T12:54:55.604Z,101152.28
2019-06-10T12:59:58.429Z,101154.69
2019-06-10T13:05:03.120Z,101157.91
2019-06-10T13:10:04.183Z,101168.60
2019-06-10T13:15:07.466Z,101154.57
2019-06-10T13:20:10.442Z,101146.53
2019-06-10T13:25:13.466Z,101133.47
2019-06-10T13:30:15.190Z,101131.63
2019-06-10T13:35:16.796Z,101130.52
2019-06-10T13:40:18.901Z,101130.06
2019-06-10T13:45:22.397Z,101108.80
2019-06-10T13:50:25.020Z,101117.09
2019-06-10T13:55:27.777Z,101110.05
2019-06-10T14:00:41.648Z,101103.27
2019-06-10T14:05:34.610Z,101101.03
2019-06-10T14:10:36.720Z,101094.55
2019-06-10T14:15:38.757Z,101078.28
2019-06-10T14:20:40.299Z,101076.93
2019-06-10T14:25:42.458Z,101069.52
2019-06-10T14:30:44.499Z,101063.45
2019-06-10T14:35:45.987Z,101063.10
2019-06-10T14:40:47.806Z,101065.42
2019-06-10T14:45:49.627Z,101061.47
2019-06-10T14:50:51.171Z,101071.88
2019-06-10T14:55:53.592Z,101063.86
2019-06-10T15:00:55.582Z,101075.28
2019-06-10T15:05:57.181Z,101065.39
2019-06-10T15:10:58.701Z,101063.24
2019-06-10T15:16:04.423Z,101059.88
2019-06-10T15:21:04.039Z,101055.47
2019-06-10T15:26:05.590Z,101035.25
2019-06-10T15:31:08.222Z,101024.13
2019-06-10T15:36:11.207Z,101033.61
2019-06-10T15:41:16.077Z,101044.34
2019-06-10T15:46:17.929Z,101043.32
2019-06-10T15:51:25.119Z,101056.89
2019-06-10T15:56:37.304Z,101053.00
2019-06-10T16:01:27.738Z,101065.66
2019-06-10T16:06:29.314Z,101058.36
2019-06-10T16:11:33.094Z,101036.86
2019-06-10T16:16:34.793Z,101025.14
2019-06-10T16:21:36.508Z,101027.33
2019-06-10T16:26:38.448Z,101022.16
2019-06-10T16:31:42.276Z,101006.61
2019-06-10T16:36:43.940Z,101001.05
2019-06-10T16:41:45.566Z,101004.52
2019-06-10T16:46:47.462Z,101017.50
2019-06-10T16:51:49.042Z,101004.09
2019-06-10T16:56:52.300Z,100995.09
2019-06-10T17:01:53.982Z,101003.65
2019-06-10T17:06:55.775Z,101004.15
2019-06-10T17:11:57.610Z,101009.08
2019-06-10T17:16:59.197Z,101006.20
2019-06-10T17:22:00.858Z,101007.79
2019-06-10T17:27:02.729Z,101006.45
2019-06-10T17:32:04.599Z,101015.12
2019-06-10T17:37:06.519Z,101010.37
2019-06-10T17:42:08.321Z,101008.27
2019-06-10T17:47:13.070Z,101011.50
2019-06-10T17:52:14.332Z,101038.80
2019-06-10T17:57:16.186Z,101048.58
2019-06-10T18:02:18.601Z,101046.85
2019-06-10T18:07:22.742Z,101037.16
2019-06-10T18:12:24.041Z,101046.53
2019-06-10T18:17:27.138Z,101037.20
2019-06-10T18:22:31.208Z,101042.15
2019-06-10T18:27:34.126Z,101046.19
2019-06-10T18:32:37.572Z,101041.84
2019-06-10T18:37:39.491Z,101049.14
2019-06-10T18:42:41.073Z,101063.95
2019-06-10T18:47:42.938Z,101080.92
2019-06-10T18:52:45.052Z,101085.84
2019-06-10T18:57:47.284Z,101091.18
2019-06-10T19:02:49.381Z,101085.38
2019-06-10T19:07:52.882Z,101088.91
2019-06-10T19:12:56.802Z,101101.33
2019-06-10T19:17:58.844Z,101105.28
2019-06-10T19:23:02.449Z,101114.50
2019-06-10T19:28:03.976Z,101129.03
2019-06-10T19:33:05.880Z,101144.73
2019-06-10T19:38:07.556Z,101150.61
2019-06-10T19:43:09.102Z,101164.70
2019-06-10T19:48:12.437Z,101160.62
2019-06-10T19:53:14.487Z,101163.56
2019-06-10T19:58:16.343Z,101159.00
2019-06-10T20:03:17.830Z,101155.91
2019-06-10T20:08:19.704Z,101142.13
2019-06-10T20:13:23.039Z,101137.09
2019-06-10T20:18:25.050Z,101122.95
2019-06-10T20:23:26.569Z,101118.42
2019-06-10T20:28:28.366Z,101113.50
2019-06-10T20:33:33.676Z,101124.63
2019-06-10T20:38:33.815Z,101118.42
2019-06-10T20:43:35.721Z,101125.06
2019-06-10T20:48:40.746Z,101114.41
2019-06-10T20:53:45.930Z,101112.64
2019-06-10T20:58:49.393Z,101103.73
2019-06-10T21:03:51.799Z,101096.40
2019-06-10T21:08:54.103Z,101088.89
2019-06-10T21:13:56.318Z,101095.02
2019-06-10T21:18:58.079Z,101097.59
2019-06-10T21:24:02.310Z,101102.25
2019-06-10T21:29:04.025Z,101102.63
2019-06-10T21:34:05.536Z,101105.95
2019-06-10T21:39:07.752Z,101110.72
2019-06-10T21:44:09.244Z,101106.60
2019-06-10T21:49:12.762Z,101113.70
2019-06-10T21:54:14.151Z,101120.58
2019-06-10T21:59:16.228Z,101135.41
2019-06-10T22:04:18.124Z,101130.67
2019-06-10T22:09:19.686Z,101131.63
2019-06-10T22:14:22.488Z,101126.83
2019-06-10T22:19:24.468Z,101130.81
2019-06-10T22:24:26.087Z,101132.53
2019-06-10T22:29:27.611Z,101119.59
2019-06-10T22:34:29.072Z,101125.70
2019-06-10T22:39:32.555Z,101134.14
2019-06-10T22:44:34.241Z,101124.00
2019-06-10T22:49:35.738Z,101127.16
2019-06-10T22:54:37.228Z,101108.13
2019-06-10T22:59:38.946Z,101119.20
2019-06-10T23:04:43.249Z,101126.31
2019-06-10T23:09:44.176Z,101111.76
2019-06-10T23:14:45.985Z,101112.66
2019-06-10T23:19:47.509Z,101125.51
2019-06-10T23:24:49.559Z,101125.55
2019-06-10T23:29:53.926Z,101129.02
2019-06-10T23:34:57.868Z,101122.84
2019-06-10T23:39:59.037Z,101125.98
2019-06-10T23:45:04.748Z,101127.22
2019-06-10T23:50:04.556Z,101132.95
2019-06-10T23:55:06.175Z,101135.09
